createdAt,value
2022-08-05T00:03:54.875Z,95.90
2022-08-05T00:08:01.290Z,95.50
2022-08-05T00:12:03.890Z,94.70
2022-08-05T00:16:12.637Z,94.60
2022-08-05T00:20:14.747Z,94.60
2022-08-05T00:24:24.544Z,94.60
2022-08-05T00:32:43.313Z,96.20
2022-08-05T00:37:11.167Z,96.20
2022-08-05T00:41:11.755Z,95.50
2022-08-05T00:45:13.905Z,94.90
2022-08-05T00:49:19.190Z,95.70
2022-08-05T00:54:01.218Z,94.90
2022-08-05T00:57:58.751Z,94.80
2022-08-05T01:02:00.972Z,94.50
2022-08-05T01:06:03.930Z,95.30
2022-08-05T01:10:18.588Z,95.00
2022-08-05T01:14:37.309Z,95.80
2022-08-05T01:18:48.167Z,96.00
2022-08-05T01:23:14.914Z,96.30
2022-08-05T01:27:50.703Z,95.90
2022-08-05T01:32:02.716Z,96.20
2022-08-05T01:36:16.265Z,96.30
2022-08-05T01:40:19.727Z,95.90
2022-08-05T01:44:34.212Z,96.30
2022-08-05T01:48:39.157Z,96.30
2022-08-05T01:52:50.049Z,96.20
2022-08-05T01:58:13.647Z,95.90
2022-08-05T02:01:17.647Z,96.50
2022-08-05T02:05:34.388Z,97.40
2022-08-05T02:09:38.054Z,97.10
2022-08-05T02:14:07.746Z,97.50
2022-08-05T02:18:42.638Z,97.40
2022-08-05T02:22:46.796Z,97.30
2022-08-05T02:26:56.250Z,97.90
2022-08-05T02:31:02.822Z,97.30
2022-08-05T02:35:14.102Z,97.10
2022-08-05T02:39:21.387Z,98.60
2022-08-05T02:43:24.779Z,99.30
2022-08-05T02:47:58.692Z,98.40
2022-08-05T02:52:03.876Z,97.50
2022-08-05T02:56:09.943Z,96.90
2022-08-05T03:00:19.684Z,96.70
2022-08-05T03:04:22.998Z,96.20
2022-08-05T03:08:29.607Z,96.10
2022-08-05T03:12:39.762Z,96.60
2022-08-05T03:16:42.899Z,97.10
2022-08-05T03:20:48.881Z,97.40
2022-08-05T03:29:12.266Z,96.80
2022-08-05T03:33:22.088Z,96.70
2022-08-05T03:37:26.043Z,96.20
2022-08-05T03:41:33.014Z,95.70
2022-08-05T03:45:57.930Z,97.10
2022-08-05T03:50:00.730Z,96.60
2022-08-05T03:55:49.904Z,96.30
2022-08-05T03:58:33.351Z,96.30
2022-08-05T04:02:52.220Z,96.70
2022-08-05T04:07:01.647Z,97.10
2022-08-05T04:11:08.637Z,96.90
2022-08-05T04:15:15.603Z,96.70
2022-08-05T04:19:18.515Z,97.60
2022-08-05T04:24:05.676Z,96.70
2022-08-05T04:27:56.799Z,96.90
2022-08-05T04:32:00.049Z,98.00
2022-08-05T04:36:15.581Z,98.20
2022-08-05T04:40:23.992Z,97.30
2022-08-05T04:44:30.243Z,96.70
2022-08-05T04:48:32.518Z,97.10
2022-08-05T04:52:34.497Z,96.70
2022-08-05T05:00:54.168Z,97.00
2022-08-05T05:05:02.743Z,96.50
2022-08-05T05:09:05.637Z,96.40
2022-08-05T05:13:08.356Z,95.90
2022-08-05T05:17:10.335Z,96.00
2022-08-05T05:21:12.356Z,96.00
2022-08-05T05:25:32.632Z,95.80
2022-08-05T05:30:04.359Z,96.10
2022-08-05T05:34:05.348Z,96.10
2022-08-05T05:38:09.247Z,96.30
2022-08-05T05:42:14.913Z,96.30
2022-08-05T05:46:18.892Z,97.00
2022-08-05T05:50:21.374Z,97.30
2022-08-05T05:54:50.816Z,98.20
2022-08-05T05:58:47.831Z,98.10
2022-08-05T06:02:52.053Z,98.00
2022-08-05T06:06:53.828Z,95.80
2022-08-05T06:10:56.443Z,94.60
2022-08-05T06:15:00.329Z,94.80
2022-08-05T06:19:05.642Z,95.50
2022-08-05T06:23:09.266Z,95.40
2022-08-05T06:28:10.500Z,95.60
2022-08-05T06:31:42.644Z,95.50
2022-08-05T06:36:07.297Z,96.00
2022-08-05T06:40:06.590Z,95.60
2022-08-05T06:44:08.324Z,96.50
2022-08-05T06:48:37.016Z,96.40
2022-08-05T06:52:36.578Z,95.80
2022-08-05T06:56:40.114Z,96.50
2022-08-05T07:00:59.969Z,96.00
2022-08-05T07:05:01.885Z,96.40
2022-08-05T07:09:04.714Z,96.50
2022-08-05T07:13:52.449Z,95.40
2022-08-05T07:18:00.754Z,95.50
2022-08-05T07:22:08.454Z,95.70
2022-08-05T07:26:10.210Z,95.80
2022-08-05T07:30:24.441Z,95.00
2022-08-05T07:34:32.258Z,94.20
2022-08-05T07:38:45.660Z,92.90
2022-08-05T07:42:50.715Z,92.40
2022-08-05T07:46:52.643Z,92.80
2022-08-05T07:50:55.702Z,92.60
2022-08-05T07:55:01.436Z,92.30
2022-08-05T07:59:05.442Z,92.30
2022-08-05T08:03:13.932Z,91.90
2022-08-05T08:07:23.154Z,92.40
2022-08-05T08:11:27.654Z,91.60
2022-08-05T08:16:34.309Z,92.40
2022-08-05T08:20:44.605Z,91.60
2022-08-05T08:24:51.070Z,92.00
2022-08-05T08:28:59.095Z,91.90
2022-08-05T08:33:13.871Z,90.70
2022-08-05T08:37:18.752Z,90.50
2022-08-05T08:41:26.350Z,89.30
2022-08-05T08:45:49.518Z,90.50
2022-08-05T08:50:23.139Z,88.10
2022-08-05T08:54:16.561Z,89.00
2022-08-05T08:58:26.018Z,86.90
2022-08-05T09:02:28.774Z,84.90
2022-08-05T09:06:31.499Z,84.90
2022-08-05T09:10:36.314Z,84.90
2022-08-05T09:14:58.581Z,82.80
2022-08-05T09:19:06.794Z,83.50
2022-08-05T09:23:18.714Z,84.70
2022-08-05T09:28:04.213Z,82.60
2022-08-05T09:32:45.964Z,82.90
2022-08-05T09:36:54.350Z,82.00
2022-08-05T09:41:11.966Z,80.90
2022-08-05T09:46:07.766Z,80.50
2022-08-05T09:50:00.920Z,78.70
2022-08-05T09:54:07.423Z,79.80
2022-08-05T09:58:17.237Z,78.10
2022-08-05T10:02:31.786Z,79.50
2022-08-05T10:06:49.984Z,79.20
2022-08-05T10:11:04.595Z,77.20
2022-08-05T10:15:20.434Z,77.70
2022-08-05T10:20:03.296Z,78.30
2022-08-05T10:23:59.706Z,76.00
2022-08-05T10:28:13.021Z,75.80
2022-08-05T10:32:53.917Z,74.00
2022-08-05T10:36:45.858Z,76.00
2022-08-05T10:40:51.809Z,74.40
2022-08-05T10:45:00.232Z,73.80
2022-08-05T10:49:09.896Z,74.20
2022-08-05T10:53:39.493Z,72.10
2022-08-05T10:57:54.891Z,72.10
2022-08-05T11:02:14.745Z,72.40
2022-08-05T11:07:06.808Z,70.60
2022-08-05T11:11:52.811Z,70.50
2022-08-05T11:16:21.792Z,69.00
2022-08-05T11:20:39.267Z,71.00
2022-08-05T11:25:01.575Z,70.70
2022-08-05T11:33:51.674Z,71.50
2022-08-05T11:38:29.985Z,71.00
2022-08-05T11:42:18.404Z,72.80
2022-08-05T11:46:58.205Z,71.20
2022-08-05T11:51:08.436Z,73.30
2022-08-05T11:55:13.326Z,71.40
2022-08-05T11:59:21.322Z,71.60
2022-08-05T12:03:31.606Z,72.40
2022-08-05T12:08:10.499Z,70.90
2022-08-05T12:11:59.442Z,71.30
2022-08-05T12:16:15.060Z,71.10
2022-08-05T12:20:30.662Z,70.10
2022-08-05T12:24:41.022Z,68.80
2022-08-05T12:28:51.424Z,68.60
2022-08-05T12:32:56.329Z,70.60
2022-08-05T12:37:10.683Z,70.10
2022-08-05T12:42:09.201Z,70.40
2022-08-05T12:46:29.369Z,69.60
2022-08-05T12:50:31.753Z,69.00
2022-08-05T12:54:35.907Z,68.00
2022-08-05T12:58:53.568Z,67.20
2022-08-05T13:02:57.164Z,68.90
2022-08-05T13:07:04.984Z,69.10
2022-08-05T13:11:25.499Z,68.80
2022-08-05T13:15:50.537Z,69.10
2022-08-05T13:20:05.711Z,68.50
2022-08-05T13:24:08.664Z,67.90
2022-08-05T13:28:11.598Z,68.40
2022-08-05T13:32:21.488Z,69.90
2022-08-05T13:36:34.300Z,67.80
2022-08-05T13:40:42.418Z,68.70
2022-08-05T13:44:55.051Z,68.90
2022-08-05T13:49:00.891Z,68.40
2022-08-05T13:53:03.091Z,68.00
2022-08-05T13:57:12.045Z,67.80
2022-08-05T14:01:18.183Z,68.50
2022-08-05T14:05:48.447Z,68.90
2022-08-05T14:09:46.474Z,68.50
2022-08-05T14:13:48.690Z,68.60
2022-08-05T14:22:15.427Z,66.50
2022-08-05T14:26:38.592Z,67.60
2022-08-05T14:30:46.327Z,66.90
2022-08-05T14:34:48.793Z,67.50
2022-08-05T14:38:53.606Z,66.00
2022-08-05T14:42:55.984Z,66.70
2022-08-05T14:46:58.286Z,66.90
2022-08-05T14:51:00.103Z,66.10
2022-08-05T14:55:06.396Z,66.90
2022-08-05T14:59:08.287Z,66.00
2022-08-05T15:03:10.038Z,66.20
2022-08-05T15:07:21.689Z,64.30
2022-08-05T15:11:53.067Z,65.30
2022-08-05T15:15:56.543Z,65.50
2022-08-05T15:19:58.516Z,65.30
2022-08-05T15:24:00.361Z,66.00
2022-08-05T15:28:02.152Z,64.80
2022-08-05T15:32:04.092Z,65.00
2022-08-05T15:36:54.650Z,66.70
2022-08-05T15:41:04.038Z,67.30
2022-08-05T15:45:18.981Z,66.90
2022-08-05T15:49:56.673Z,67.00
2022-08-05T15:54:01.071Z,68.30
2022-08-05T16:02:19.795Z,68.00
2022-08-05T16:06:31.985Z,68.90
2022-08-05T16:10:34.037Z,69.00
2022-08-05T16:14:36.128Z,68.40
2022-08-05T16:18:52.302Z,68.10
2022-08-05T16:22:54.697Z,68.60
2022-08-05T16:27:01.732Z,67.80
2022-08-05T16:31:05.519Z,68.50
2022-08-05T16:35:16.094Z,67.70
2022-08-05T16:39:21.015Z,67.90
2022-08-05T16:47:48.440Z,67.50
2022-08-05T16:51:56.988Z,68.30
2022-08-05T16:55:59.099Z,67.80
2022-08-05T17:00:08.373Z,67.90
2022-08-05T17:04:10.522Z,69.80
2022-08-05T17:08:13.327Z,69.70
2022-08-05T17:12:32.393Z,69.50
2022-08-05T17:16:38.156Z,69.40
2022-08-05T17:20:40.736Z,70.80
2022-08-05T17:24:56.919Z,70.90
2022-08-05T17:29:00.154Z,70.60
2022-08-05T17:33:09.205Z,71.00
2022-08-05T17:37:27.305Z,71.10
2022-08-05T17:42:20.438Z,72.90
2022-08-05T17:45:54.866Z,76.10
2022-08-05T17:50:55.174Z,77.20
2022-08-05T17:59:26.742Z,78.40
2022-08-05T18:07:57.031Z,79.80
2022-08-05T18:11:59.603Z,80.40
2022-08-05T18:16:04.061Z,80.20
2022-08-05T18:20:15.228Z,82.10
2022-08-05T18:24:18.321Z,81.50
2022-08-05T18:28:22.958Z,81.10
2022-08-05T18:32:30.707Z,82.00
2022-08-05T18:36:35.583Z,82.70
2022-08-05T18:41:57.941Z,83.50
2022-08-05T18:44:59.471Z,83.20
2022-08-05T18:49:21.899Z,83.30
2022-08-05T18:53:25.221Z,83.60
2022-08-05T18:57:28.267Z,83.10
2022-08-05T19:01:48.129Z,83.90
2022-08-05T19:06:13.094Z,85.50
2022-08-05T19:10:28.027Z,85.40
2022-08-05T19:14:52.113Z,85.60
2022-08-05T19:18:53.259Z,84.90
2022-08-05T19:22:58.359Z,84.90
2022-08-05T19:27:00.361Z,86.40
2022-08-05T19:31:06.276Z,86.90
2022-08-05T19:35:08.724Z,87.30
2022-08-05T19:39:10.521Z,88.70
2022-08-05T19:43:24.379Z,90.10
2022-08-05T19:47:37.111Z,90.00
2022-08-05T19:52:08.523Z,89.80
2022-08-05T19:56:13.999Z,88.80
2022-08-05T20:00:22.474Z,90.20
2022-08-05T20:04:24.192Z,90.70
2022-08-05T20:08:25.905Z,90.50
2022-08-05T20:12:27.971Z,90.40
2022-08-05T20:16:30.118Z,90.80
2022-08-05T20:20:32.045Z,91.50
2022-08-05T20:24:34.638Z,92.80
2022-08-05T20:28:37.038Z,93.00
2022-08-05T20:32:45.241Z,93.50
2022-08-05T20:36:47.279Z,93.30
2022-08-05T20:40:50.330Z,93.20
2022-08-05T20:44:52.386Z,94.70
2022-08-05T20:48:54.685Z,95.30
2022-08-05T20:52:56.521Z,95.60
2022-08-05T20:56:58.390Z,96.80
2022-08-05T21:01:00.244Z,98.40
2022-08-05T21:05:02.605Z,99.00
2022-08-05T21:09:07.824Z,98.20
2022-08-05T21:13:15.890Z,98.40
2022-08-05T21:17:21.414Z,97.30
2022-08-05T21:21:24.517Z,97.00
2022-08-05T21:25:26.342Z,97.10
2022-08-05T21:29:40.670Z,95.70
2022-08-05T21:33:42.681Z,95.30
2022-08-05T21:37:53.391Z,94.30
2022-08-05T21:42:01.632Z,96.70
2022-08-05T21:46:04.921Z,98.70
2022-08-05T21:50:10.050Z,98.10
2022-08-05T21:54:14.263Z,99.90
2022-08-05T21:58:16.125Z,99.90
2022-08-05T22:02:21.029Z,99.90
2022-08-05T22:06:37.017Z,99.90
2022-08-05T22:10:41.527Z,99.90
2022-08-05T22:14:46.317Z,99.90
2022-08-05T22:18:49.235Z,99.90
2022-08-05T22:23:17.228Z,99.90
2022-08-05T22:28:10.474Z,99.90
2022-08-05T22:32:03.961Z,99.90
2022-08-05T22:36:05.810Z,99.90
2022-08-05T22:40:08.734Z,99.90
2022-08-05T22:44:12.097Z,99.90
2022-08-05T22:48:14.014Z,99.90
2022-08-05T22:52:32.718Z,99.90
2022-08-05T22:56:36.428Z,99.90
2022-08-05T23:00:41.910Z,99.90
2022-08-05T23:04:51.661Z,99.90
2022-08-05T23:08:54.365Z,99.90
2022-08-05T23:12:56.129Z,99.90
2022-08-05T23:17:16.324Z,99.90
2022-08-05T23:21:25.658Z,99.90
2022-08-05T23:25:52.253Z,99.90
2022-08-05T23:29:57.377Z,99.90
2022-08-05T23:34:03.712Z,99.90
2022-08-05T23:38:08.485Z,99.90
2022-08-05T23:42:14.400Z,99.90
2022-08-05T23:46:21.223Z,99.90
2022-08-05T23:50:23.700Z,99.90
2022-08-05T23:54:33.961Z,99.90
2022-08-05T23:58:40.097Z,99.90
